sensor_id;sensor_type;location;lat;lon;timestamp;temperature;humidity
22418;DHT22;11376;50.932;4.442;2023-07-30T00:01:26;16.60;99.90
22418;DHT22;11376;50.932;4.442;2023-07-30T00:03:51;16.50;99.90
22418;DHT22;11376;50.932;4.442;2023-07-30T00:06:17;16.50;99.90
22418;DHT22;11376;50.932;4.442;2023-07-30T00:08:43;16.50;99.90
22418;DHT22;11376;50.932;4.442;2023-07-30T00:11:08;16.40;99.90
22418;DHT22;11376;50.932;4.442;2023-07-30T00:13:34;16.40;99.90
22418;DHT22;11376;50.932;4.442;2023-07-30T00:15:59;16.40;99.90
22418;DHT22;11376;50.932;4.442;2023-07-30T00:18:25;16.40;99.90
22418;DHT22;11376;50.932;4.442;2023-07-30T00:20:51;16.40;99.90
22418;DHT22;11376;50.932;4.442;2023-07-30T00:23:16;16.40;99.90
22418;DHT22;11376;50.932;4.442;2023-07-30T00:25:42;16.40;99.90
22418;DHT22;11376;50.932;4.442;2023-07-30T00:28:08;16.30;99.90
22418;DHT22;11376;50.932;4.442;2023-07-30T00:30:33;16.30;99.90
22418;DHT22;11376;50.932;4.442;2023-07-30T00:32:59;16.30;99.90
22418;DHT22;11376;50.932;4.442;2023-07-30T00:35:24;16.30;99.90
22418;DHT22;11376;50.932;4.442;2023-07-30T00:37:50;16.30;99.90
22418;DHT22;11376;50.932;4.442;2023-07-30T00:40:17;16.20;99.90
22418;DHT22;11376;50.932;4.442;2023-07-30T00:42:43;16.20;99.90
22418;DHT22;11376;50.932;4.442;2023-07-30T00:45:09;16.20;99.90
22418;DHT22;11376;50.932;4.442;2023-07-30T00:47:39;16.10;99.90
22418;DHT22;11376;50.932;4.442;2023-07-30T00:50:06;16.10;99.90
22418;DHT22;11376;50.932;4.442;2023-07-30T00:52:32;16.00;99.90
22418;DHT22;11376;50.932;4.442;2023-07-30T00:54:59;16.00;99.90
22418;DHT22;11376;50.932;4.442;2023-07-30T00:57:26;16.00;99.90
22418;DHT22;11376;50.932;4.442;2023-07-30T00:59:52;16.00;99.90
22418;DHT22;11376;50.932;4.442;2023-07-30T01:02:18;16.00;99.90
22418;DHT22;11376;50.932;4.442;2023-07-30T01:04:44;16.00;99.90
22418;DHT22;11376;50.932;4.442;2023-07-30T01:07:10;16.00;99.90
22418;DHT22;11376;50.932;4.442;2023-07-30T01:09:35;16.00;99.90
22418;DHT22;11376;50.932;4.442;2023-07-30T01:12:02;16.00;99.90
22418;DHT22;11376;50.932;4.442;2023-07-30T01:14:28;16.00;99.90
22418;DHT22;11376;50.932;4.442;2023-07-30T01:16:55;16.00;99.90
22418;DHT22;11376;50.932;4.442;2023-07-30T01:19:21;16.10;99.90
22418;DHT22;11376;50.932;4.442;2023-07-30T01:21:46;16.10;99.90
22418;DHT22;11376;50.932;4.442;2023-07-30T01:24:12;16.10;99.90
22418;DHT22;11376;50.932;4.442;2023-07-30T01:26:45;16.20;99.90
22418;DHT22;11376;50.932;4.442;2023-07-30T01:29:20;16.20;99.90
22418;DHT22;11376;50.932;4.442;2023-07-30T01:31:53;16.20;99.90
22418;DHT22;11376;50.932;4.442;2023-07-30T01:34:20;16.20;99.90
22418;DHT22;11376;50.932;4.442;2023-07-30T01:36:47;16.30;99.90
22418;DHT22;11376;50.932;4.442;2023-07-30T01:39:14;16.30;99.90
22418;DHT22;11376;50.932;4.442;2023-07-30T01:41:41;16.30;99.90
22418;DHT22;11376;50.932;4.442;2023-07-30T01:44:06;16.30;99.90
22418;DHT22;11376;50.932;4.442;2023-07-30T01:46:32;16.30;99.90
22418;DHT22;11376;50.932;4.442;2023-07-30T01:48:58;16.30;99.90
22418;DHT22;11376;50.932;4.442;2023-07-30T01:51:23;16.30;99.90
22418;DHT22;11376;50.932;4.442;2023-07-30T01:53:49;16.30;99.90
22418;DHT22;11376;50.932;4.442;2023-07-30T01:56:15;16.30;99.90
22418;DHT22;11376;50.932;4.442;2023-07-30T01:58:40;16.30;99.90
22418;DHT22;11376;50.932;4.442;2023-07-30T02:01:06;16.30;99.90
22418;DHT22;11376;50.932;4.442;2023-07-30T02:03:32;16.30;99.90
22418;DHT22;11376;50.932;4.442;2023-07-30T02:05:57;16.30;99.90
22418;DHT22;11376;50.932;4.442;2023-07-30T02:08:23;16.30;99.90
22418;DHT22;11376;50.932;4.442;2023-07-30T02:10:56;16.30;99.90
22418;DHT22;11376;50.932;4.442;2023-07-30T02:13:23;16.30;99.90
22418;DHT22;11376;50.932;4.442;2023-07-30T02:15:49;16.30;99.90
22418;DHT22;11376;50.932;4.442;2023-07-30T02:18:14;16.30;99.90
22418;DHT22;11376;50.932;4.442;2023-07-30T02:20:40;16.30;99.90
22418;DHT22;11376;50.932;4.442;2023-07-30T02:23:06;16.30;99.90
22418;DHT22;11376;50.932;4.442;2023-07-30T02:25:31;16.40;99.90
22418;DHT22;11376;50.932;4.442;2023-07-30T02:27:59;16.40;99.90
22418;DHT22;11376;50.932;4.442;2023-07-30T02:30:25;16.40;99.90
22418;DHT22;11376;50.932;4.442;2023-07-30T02:32:50;16.40;99.90
22418;DHT22;11376;50.932;4.442;2023-07-30T02:35:16;16.40;99.90
22418;DHT22;11376;50.932;4.442;2023-07-30T02:37:42;16.40;99.90
22418;DHT22;11376;50.932;4.442;2023-07-30T02:40:08;16.40;99.90
22418;DHT22;11376;50.932;4.442;2023-07-30T02:42:34;16.40;99.90
22418;DHT22;11376;50.932;4.442;2023-07-30T02:45:00;16.40;99.90
22418;DHT22;11376;50.932;4.442;2023-07-30T02:47:25;16.40;99.90
22418;DHT22;11376;50.932;4.442;2023-07-30T02:49:51;16.40;99.90
22418;DHT22;11376;50.932;4.442;2023-07-30T02:52:17;16.30;99.90
22418;DHT22;11376;50.932;4.442;2023-07-30T02:54:42;16.30;99.90
22418;DHT22;11376;50.932;4.442;2023-07-30T02:57:08;16.30;99.90
22418;DHT22;11376;50.932;4.442;2023-07-30T02:59:34;16.30;99.90
22418;DHT22;11376;50.932;4.442;2023-07-30T03:02:03;16.30;99.90
22418;DHT22;11376;50.932;4.442;2023-07-30T03:04:32;16.20;99.90
22418;DHT22;11376;50.932;4.442;2023-07-30T03:06:58;16.20;99.90
22418;DHT22;11376;50.932;4.442;2023-07-30T03:09:24;16.20;99.90
22418;DHT22;11376;50.932;4.442;2023-07-30T03:11:50;16.20;99.90
22418;DHT22;11376;50.932;4.442;2023-07-30T03:14:16;16.20;99.90
22418;DHT22;11376;50.932;4.442;2023-07-30T03:16:46;16.20;99.90
22418;DHT22;11376;50.932;4.442;2023-07-30T03:19:12;16.20;99.90
22418;DHT22;11376;50.932;4.442;2023-07-30T03:21:37;16.20;99.90
22418;DHT22;11376;50.932;4.442;2023-07-30T03:24:03;16.20;99.90
22418;DHT22;11376;50.932;4.442;2023-07-30T03:26:29;16.20;99.90
22418;DHT22;11376;50.932;4.442;2023-07-30T03:28:54;16.30;99.90
22418;DHT22;11376;50.932;4.442;2023-07-30T03:31:20;16.30;99.90
22418;DHT22;11376;50.932;4.442;2023-07-30T03:33:46;16.30;99.90
22418;DHT22;11376;50.932;4.442;2023-07-30T03:36:12;16.30;99.90
22418;DHT22;11376;50.932;4.442;2023-07-30T03:38:41;16.30;99.90
22418;DHT22;11376;50.932;4.442;2023-07-30T03:41:08;16.30;99.90
22418;DHT22;11376;50.932;4.442;2023-07-30T03:43:34;16.30;99.90
22418;DHT22;11376;50.932;4.442;2023-07-30T03:46:00;16.30;99.90
22418;DHT22;11376;50.932;4.442;2023-07-30T03:48:26;16.40;99.90
22418;DHT22;11376;50.932;4.442;2023-07-30T03:50:53;16.40;99.90
22418;DHT22;11376;50.932;4.442;2023-07-30T03:53:19;16.40;99.90
22418;DHT22;11376;50.932;4.442;2023-07-30T03:55:45;16.30;99.90
22418;DHT22;11376;50.932;4.442;2023-07-30T03:58:10;16.30;99.90
22418;DHT22;11376;50.932;4.442;2023-07-30T04:00:36;16.40;99.90
22418;DHT22;11376;50.932;4.442;2023-07-30T04:03:02;16.30;99.90
22418;DHT22;11376;50.932;4.442;2023-07-30T04:05:28;16.30;99.90
22418;DHT22;11376;50.932;4.442;2023-07-30T04:07:53;16.20;99.90
22418;DHT22;11376;50.932;4.442;2023-07-30T04:10:19;16.20;99.90
22418;DHT22;11376;50.932;4.442;2023-07-30T04:12:45;16.20;99.90
22418;DHT22;11376;50.932;4.442;2023-07-30T04:15:10;16.20;99.90
22418;DHT22;11376;50.932;4.442;2023-07-30T04:17:37;16.20;99.90
22418;DHT22;11376;50.932;4.442;2023-07-30T04:20:03;16.10;99.90
22418;DHT22;11376;50.932;4.442;2023-07-30T04:22:30;16.10;99.90
22418;DHT22;11376;50.932;4.442;2023-07-30T04:24:56;16.10;99.90
22418;DHT22;11376;50.932;4.442;2023-07-30T04:27:22;16.10;99.90
22418;DHT22;11376;50.932;4.442;2023-07-30T04:29:48;16.00;99.90
22418;DHT22;11376;50.932;4.442;2023-07-30T04:32:14;16.00;99.90
22418;DHT22;11376;50.932;4.442;2023-07-30T04:34:39;16.00;99.90
22418;DHT22;11376;50.932;4.442;2023-07-30T04:37:06;16.00;99.90
22418;DHT22;11376;50.932;4.442;2023-07-30T04:39:35;16.00;99.90
22418;DHT22;11376;50.932;4.442;2023-07-30T04:42:01;15.90;99.90
22418;DHT22;11376;50.932;4.442;2023-07-30T04:44:27;16.00;99.90
22418;DHT22;11376;50.932;4.442;2023-07-30T04:46:53;16.00;99.90
22418;DHT22;11376;50.932;4.442;2023-07-30T04:49:18;16.00;99.90
22418;DHT22;11376;50.932;4.442;2023-07-30T04:51:44;16.00;99.90
22418;DHT22;11376;50.932;4.442;2023-07-30T04:54:10;16.00;99.90
22418;DHT22;11376;50.932;4.442;2023-07-30T04:56:36;16.00;99.90
22418;DHT22;11376;50.932;4.442;2023-07-30T04:59:01;16.00;99.90
22418;DHT22;11376;50.932;4.442;2023-07-30T05:01:27;16.00;99.90
22418;DHT22;11376;50.932;4.442;2023-07-30T05:03:53;16.00;99.90
22418;DHT22;11376;50.932;4.442;2023-07-30T05:06:19;16.00;99.90
22418;DHT22;11376;50.932;4.442;2023-07-30T05:08:44;16.00;99.90
22418;DHT22;11376;50.932;4.442;2023-07-30T05:11:10;16.00;99.90
22418;DHT22;11376;50.932;4.442;2023-07-30T05:13:36;16.10;99.90
22418;DHT22;11376;50.932;4.442;2023-07-30T05:16:01;16.00;99.90
22418;DHT22;11376;50.932;4.442;2023-07-30T05:18:27;16.10;99.90
22418;DHT22;11376;50.932;4.442;2023-07-30T05:20:54;16.10;99.90
22418;DHT22;11376;50.932;4.442;2023-07-30T05:23:19;16.10;99.90
22418;DHT22;11376;50.932;4.442;2023-07-30T05:25:45;16.10;99.90
22418;DHT22;11376;50.932;4.442;2023-07-30T05:28:11;16.10;99.90
22418;DHT22;11376;50.932;4.442;2023-07-30T05:30:37;16.10;99.90
22418;DHT22;11376;50.932;4.442;2023-07-30T05:33:03;16.20;99.90
22418;DHT22;11376;50.932;4.442;2023-07-30T05:35:28;16.10;99.90
22418;DHT22;11376;50.932;4.442;2023-07-30T05:37:54;16.20;99.90
22418;DHT22;11376;50.932;4.442;2023-07-30T05:40:21;16.20;99.90
22418;DHT22;11376;50.932;4.442;2023-07-30T05:42:46;16.20;99.90
22418;DHT22;11376;50.932;4.442;2023-07-30T05:45:12;16.20;99.90
22418;DHT22;11376;50.932;4.442;2023-07-30T05:47:38;16.10;99.90
22418;DHT22;11376;50.932;4.442;2023-07-30T05:50:04;16.20;99.90
22418;DHT22;11376;50.932;4.442;2023-07-30T05:52:30;16.20;99.90
22418;DHT22;11376;50.932;4.442;2023-07-30T05:54:56;16.30;99.90
22418;DHT22;11376;50.932;4.442;2023-07-30T05:57:21;16.30;99.90
22418;DHT22;11376;50.932;4.442;2023-07-30T05:59:47;16.30;99.90
22418;DHT22;11376;50.932;4.442;2023-07-30T06:02:13;16.30;99.90
22418;DHT22;11376;50.932;4.442;2023-07-30T06:04:38;16.30;99.90
22418;DHT22;11376;50.932;4.442;2023-07-30T06:07:04;16.30;99.90
22418;DHT22;11376;50.932;4.442;2023-07-30T06:09:30;16.40;99.90
22418;DHT22;11376;50.932;4.442;2023-07-30T06:11:57;16.40;99.90
22418;DHT22;11376;50.932;4.442;2023-07-30T06:14:26;16.30;99.90
22418;DHT22;11376;50.932;4.442;2023-07-30T06:16:53;16.40;99.90
22418;DHT22;11376;50.932;4.442;2023-07-30T06:19:19;16.40;99.90
22418;DHT22;11376;50.932;4.442;2023-07-30T06:21:45;16.40;99.90
22418;DHT22;11376;50.932;4.442;2023-07-30T06:24:11;16.40;99.90
22418;DHT22;11376;50.932;4.442;2023-07-30T06:26:36;16.40;99.90
22418;DHT22;11376;50.932;4.442;2023-07-30T06:29:02;16.40;99.90
22418;DHT22;11376;50.932;4.442;2023-07-30T06:31:28;16.40;99.90
22418;DHT22;11376;50.932;4.442;2023-07-30T06:33:54;16.40;99.90
22418;DHT22;11376;50.932;4.442;2023-07-30T06:36:19;16.40;99.90
22418;DHT22;11376;50.932;4.442;2023-07-30T06:38:45;16.50;99.90
22418;DHT22;11376;50.932;4.442;2023-07-30T06:41:10;16.40;99.90
22418;DHT22;11376;50.932;4.442;2023-07-30T06:43:36;16.50;99.90
22418;DHT22;11376;50.932;4.442;2023-07-30T06:46:02;16.50;99.90
22418;DHT22;11376;50.932;4.442;2023-07-30T06:48:28;16.50;99.90
22418;DHT22;11376;50.932;4.442;2023-07-30T06:50:53;16.50;99.90
22418;DHT22;11376;50.932;4.442;2023-07-30T06:53:19;16.50;99.90
22418;DHT22;11376;50.932;4.442;2023-07-30T06:55:44;16.40;99.90
22418;DHT22;11376;50.932;4.442;2023-07-30T06:58:10;16.40;99.90
22418;DHT22;11376;50.932;4.442;2023-07-30T07:00:36;16.50;99.90
22418;DHT22;11376;50.932;4.442;2023-07-30T07:03:03;16.60;99.90
22418;DHT22;11376;50.932;4.442;2023-07-30T07:05:29;16.70;99.90
22418;DHT22;11376;50.932;4.442;2023-07-30T07:07:55;16.80;99.90
22418;DHT22;11376;50.932;4.442;2023-07-30T07:10:21;16.90;99.90
22418;DHT22;11376;50.932;4.442;2023-07-30T07:12:46;17.00;99.90
22418;DHT22;11376;50.932;4.442;2023-07-30T07:15:12;17.20;99.90
22418;DHT22;11376;50.932;4.442;2023-07-30T07:17:38;17.30;99.90
22418;DHT22;11376;50.932;4.442;2023-07-30T07:20:05;17.20;99.90
22418;DHT22;11376;50.932;4.442;2023-07-30T07:22:32;17.20;99.90
22418;DHT22;11376;50.932;4.442;2023-07-30T07:24:58;17.30;99.90
22418;DHT22;11376;50.932;4.442;2023-07-30T07:27:23;17.40;99.90
22418;DHT22;11376;50.932;4.442;2023-07-30T07:29:50;17.70;99.90
22418;DHT22;11376;50.932;4.442;2023-07-30T07:32:16;17.70;99.90
22418;DHT22;11376;50.932;4.442;2023-07-30T07:34:48;18.10;99.90
22418;DHT22;11376;50.932;4.442;2023-07-30T07:37:15;18.40;99.90
22418;DHT22;11376;50.932;4.442;2023-07-30T07:39:42;18.20;99.90
22418;DHT22;11376;50.932;4.442;2023-07-30T07:42:08;18.20;99.90
22418;DHT22;11376;50.932;4.442;2023-07-30T07:44:33;18.40;99.90
22418;DHT22;11376;50.932;4.442;2023-07-30T07:46:59;18.20;99.90
22418;DHT22;11376;50.932;4.442;2023-07-30T07:49:24;18.40;99.90
22418;DHT22;11376;50.932;4.442;2023-07-30T07:51:50;18.50;99.90
22418;DHT22;11376;50.932;4.442;2023-07-30T07:54:16;18.50;99.90
22418;DHT22;11376;50.932;4.442;2023-07-30T07:56:41;18.80;99.90
22418;DHT22;11376;50.932;4.442;2023-07-30T07:59:07;18.90;99.90
22418;DHT22;11376;50.932;4.442;2023-07-30T08:01:33;19.00;99.90
22418;DHT22;11376;50.932;4.442;2023-07-30T08:03:58;18.70;99.90
22418;DHT22;11376;50.932;4.442;2023-07-30T08:06:24;18.60;99.90
22418;DHT22;11376;50.932;4.442;2023-07-30T08:08:50;18.70;99.90
22418;DHT22;11376;50.932;4.442;2023-07-30T08:11:16;18.80;99.90
22418;DHT22;11376;50.932;4.442;2023-07-30T08:13:41;18.60;99.90
22418;DHT22;11376;50.932;4.442;2023-07-30T08:16:07;18.50;99.90
22418;DHT22;11376;50.932;4.442;2023-07-30T08:18:33;18.40;99.90
22418;DHT22;11376;50.932;4.442;2023-07-30T08:21:00;18.60;99.90
22418;DHT22;11376;50.932;4.442;2023-07-30T08:23:25;18.80;99.90
22418;DHT22;11376;50.932;4.442;2023-07-30T08:25:51;19.00;99.90
22418;DHT22;11376;50.932;4.442;2023-07-30T08:28:17;18.90;99.90
22418;DHT22;11376;50.932;4.442;2023-07-30T08:30:43;18.80;99.90
22418;DHT22;11376;50.932;4.442;2023-07-30T08:33:08;18.70;99.90
22418;DHT22;11376;50.932;4.442;2023-07-30T08:35:34;19.00;99.90
22418;DHT22;11376;50.932;4.442;2023-07-30T08:38:00;19.10;99.90
22418;DHT22;11376;50.932;4.442;2023-07-30T08:40:26;19.00;99.90
22418;DHT22;11376;50.932;4.442;2023-07-30T08:42:52;18.90;99.90
22418;DHT22;11376;50.932;4.442;2023-07-30T08:45:18;19.10;99.90
22418;DHT22;11376;50.932;4.442;2023-07-30T08:47:45;19.80;99.90
22418;DHT22;11376;50.932;4.442;2023-07-30T08:50:11;19.50;99.90
22418;DHT22;11376;50.932;4.442;2023-07-30T08:52:37;19.60;99.90
22418;DHT22;11376;50.932;4.442;2023-07-30T08:55:04;19.50;99.90
22418;DHT22;11376;50.932;4.442;2023-07-30T08:57:31;19.00;99.90
22418;DHT22;11376;50.932;4.442;2023-07-30T09:00:08;18.90;99.90
22418;DHT22;11376;50.932;4.442;2023-07-30T09:02:59;18.40;99.90
22418;DHT22;11376;50.932;4.442;2023-07-30T09:05:25;18.00;99.90
22418;DHT22;11376;50.932;4.442;2023-07-30T09:07:50;17.70;99.90
22418;DHT22;11376;50.932;4.442;2023-07-30T09:10:16;17.50;99.90
22418;DHT22;11376;50.932;4.442;2023-07-30T09:12:42;17.30;99.90
22418;DHT22;11376;50.932;4.442;2023-07-30T09:15:07;17.20;99.90
22418;DHT22;11376;50.932;4.442;2023-07-30T09:17:34;17.40;99.90
22418;DHT22;11376;50.932;4.442;2023-07-30T09:20:00;17.60;99.90
22418;DHT22;11376;50.932;4.442;2023-07-30T09:22:33;17.70;99.90
22418;DHT22;11376;50.932;4.442;2023-07-30T09:25:02;17.90;99.90
22418;DHT22;11376;50.932;4.442;2023-07-30T09:27:29;17.80;99.90
22418;DHT22;11376;50.932;4.442;2023-07-30T09:29:59;18.00;99.90
22418;DHT22;11376;50.932;4.442;2023-07-30T09:32:33;18.10;99.90
22418;DHT22;11376;50.932;4.442;2023-07-30T09:35:06;17.70;99.90
22418;DHT22;11376;50.932;4.442;2023-07-30T09:37:36;17.00;99.90
22418;DHT22;11376;50.932;4.442;2023-07-30T09:40:05;16.60;99.90
22418;DHT22;11376;50.932;4.442;2023-07-30T09:42:31;16.40;99.90
22418;DHT22;11376;50.932;4.442;2023-07-30T09:44:59;16.00;99.90
22418;DHT22;11376;50.932;4.442;2023-07-30T09:47:30;15.90;99.90
22418;DHT22;11376;50.932;4.442;2023-07-30T09:49:56;15.80;99.90
22418;DHT22;11376;50.932;4.442;2023-07-30T09:52:22;15.80;99.90
22418;DHT22;11376;50.932;4.442;2023-07-30T09:54:49;15.90;99.90
22418;DHT22;11376;50.932;4.442;2023-07-30T09:57:17;15.80;99.90
22418;DHT22;11376;50.932;4.442;2023-07-30T09:59:43;15.90;99.90
22418;DHT22;11376;50.932;4.442;2023-07-30T10:02:10;15.90;99.90
22418;DHT22;11376;50.932;4.442;2023-07-30T10:04:42;16.00;99.90
22418;DHT22;11376;50.932;4.442;2023-07-30T10:07:16;16.10;99.90
22418;DHT22;11376;50.932;4.442;2023-07-30T10:09:45;16.30;99.90
22418;DHT22;11376;50.932;4.442;2023-07-30T10:12:16;16.50;99.90
22418;DHT22;11376;50.932;4.442;2023-07-30T10:14:43;16.60;99.90
22418;DHT22;11376;50.932;4.442;2023-07-30T10:17:11;16.80;99.90
22418;DHT22;11376;50.932;4.442;2023-07-30T10:19:37;17.00;99.90
22418;DHT22;11376;50.932;4.442;2023-07-30T10:24:57;17.50;99.90
22418;DHT22;11376;50.932;4.442;2023-07-30T10:27:24;17.70;99.90
22418;DHT22;11376;50.932;4.442;2023-07-30T10:35:42;18.10;99.90
22418;DHT22;11376;50.932;4.442;2023-07-30T10:38:38;18.20;99.90
22418;DHT22;11376;50.932;4.442;2023-07-30T10:41:10;18.50;99.90
22418;DHT22;11376;50.932;4.442;2023-07-30T10:43:43;18.70;99.90
22418;DHT22;11376;50.932;4.442;2023-07-30T10:46:12;19.00;99.90
22418;DHT22;11376;50.932;4.442;2023-07-30T10:48:40;19.30;99.90
22418;DHT22;11376;50.932;4.442;2023-07-30T10:51:12;19.30;99.90
22418;DHT22;11376;50.932;4.442;2023-07-30T10:53:38;19.50;99.90
22418;DHT22;11376;50.932;4.442;2023-07-30T10:56:05;19.40;99.90
22418;DHT22;11376;50.932;4.442;2023-07-30T10:58:32;19.40;99.90
22418;DHT22;11376;50.932;4.442;2023-07-30T11:00:59;19.40;99.90
22418;DHT22;11376;50.932;4.442;2023-07-30T11:03:26;19.70;99.90
22418;DHT22;11376;50.932;4.442;2023-07-30T11:05:53;20.20;99.90
22418;DHT22;11376;50.932;4.442;2023-07-30T11:08:21;20.60;99.90
22418;DHT22;11376;50.932;4.442;2023-07-30T11:10:47;20.80;99.90
22418;DHT22;11376;50.932;4.442;2023-07-30T11:13:13;20.80;99.90
22418;DHT22;11376;50.932;4.442;2023-07-30T11:15:46;20.70;99.90
22418;DHT22;11376;50.932;4.442;2023-07-30T11:18:12;20.80;99.90
22418;DHT22;11376;50.932;4.442;2023-07-30T11:20:39;20.90;99.90
22418;DHT22;11376;50.932;4.442;2023-07-30T11:23:20;20.80;99.90
22418;DHT22;11376;50.932;4.442;2023-07-30T11:25:50;21.00;99.90
22418;DHT22;11376;50.932;4.442;2023-07-30T11:30:59;20.80;99.90
22418;DHT22;11376;50.932;4.442;2023-07-30T11:33:27;20.50;99.90
22418;DHT22;11376;50.932;4.442;2023-07-30T11:35:54;20.70;99.90
22418;DHT22;11376;50.932;4.442;2023-07-30T11:38:21;20.90;99.90
22418;DHT22;11376;50.932;4.442;2023-07-30T11:40:47;21.30;99.90
22418;DHT22;11376;50.932;4.442;2023-07-30T11:43:14;22.00;99.90
22418;DHT22;11376;50.932;4.442;2023-07-30T11:45:39;23.40;99.90
22418;DHT22;11376;50.932;4.442;2023-07-30T11:48:09;22.90;99.90
22418;DHT22;11376;50.932;4.442;2023-07-30T11:50:49;23.20;99.90
22418;DHT22;11376;50.932;4.442;2023-07-30T11:53:15;23.50;99.90
22418;DHT22;11376;50.932;4.442;2023-07-30T11:55:42;23.80;99.90
22418;DHT22;11376;50.932;4.442;2023-07-30T11:58:09;25.40;99.90
22418;DHT22;11376;50.932;4.442;2023-07-30T12:00:36;25.40;99.90
22418;DHT22;11376;50.932;4.442;2023-07-30T12:03:04;25.70;99.90
22418;DHT22;11376;50.932;4.442;2023-07-30T12:05:37;24.90;99.90
22418;DHT22;11376;50.932;4.442;2023-07-30T12:08:04;25.40;99.90
22418;DHT22;11376;50.932;4.442;2023-07-30T12:10:43;24.50;99.90
22418;DHT22;11376;50.932;4.442;2023-07-30T12:13:16;24.60;99.90
22418;DHT22;11376;50.932;4.442;2023-07-30T12:16:01;26.00;99.90
22418;DHT22;11376;50.932;4.442;2023-07-30T12:18:27;26.10;99.90
22418;DHT22;11376;50.932;4.442;2023-07-30T12:20:54;28.40;99.90
22418;DHT22;11376;50.932;4.442;2023-07-30T12:23:20;28.40;98.40
22418;DHT22;11376;50.932;4.442;2023-07-30T12:25:46;26.90;98.60
22418;DHT22;11376;50.932;4.442;2023-07-30T12:28:12;25.10;99.90
22418;DHT22;11376;50.932;4.442;2023-07-30T12:30:38;23.90;99.90
22418;DHT22;11376;50.932;4.442;2023-07-30T12:33:05;23.70;99.90
22418;DHT22;11376;50.932;4.442;2023-07-30T12:35:32;23.20;99.90
22418;DHT22;11376;50.932;4.442;2023-07-30T12:37:58;23.50;99.90
22418;DHT22;11376;50.932;4.442;2023-07-30T12:40:24;24.80;99.90
22418;DHT22;11376;50.932;4.442;2023-07-30T12:42:50;25.90;99.90
22418;DHT22;11376;50.932;4.442;2023-07-30T12:45:16;25.90;99.90
22418;DHT22;11376;50.932;4.442;2023-07-30T12:47:41;25.70;99.90
22418;DHT22;11376;50.932;4.442;2023-07-30T12:50:08;25.60;99.90
22418;DHT22;11376;50.932;4.442;2023-07-30T12:52:34;24.60;99.90
22418;DHT22;11376;50.932;4.442;2023-07-30T12:55:00;24.00;99.90
22418;DHT22;11376;50.932;4.442;2023-07-30T12:57:26;23.70;99.90
22418;DHT22;11376;50.932;4.442;2023-07-30T12:59:52;24.60;99.90
22418;DHT22;11376;50.932;4.442;2023-07-30T13:02:17;25.20;99.90
22418;DHT22;11376;50.932;4.442;2023-07-30T13:04:43;26.20;99.90
22418;DHT22;11376;50.932;4.442;2023-07-30T13:07:08;25.10;99.90
22418;DHT22;11376;50.932;4.442;2023-07-30T13:09:34;24.50;99.90
22418;DHT22;11376;50.932;4.442;2023-07-30T13:12:00;24.80;99.90
22418;DHT22;11376;50.932;4.442;2023-07-30T13:14:25;24.20;99.90
22418;DHT22;11376;50.932;4.442;2023-07-30T13:16:51;25.50;99.90
22418;DHT22;11376;50.932;4.442;2023-07-30T13:19:17;27.60;97.50
22418;DHT22;11376;50.932;4.442;2023-07-30T13:21:42;27.90;94.00
22418;DHT22;11376;50.932;4.442;2023-07-30T13:24:08;25.60;97.50
22418;DHT22;11376;50.932;4.442;2023-07-30T13:26:35;25.00;99.20
22418;DHT22;11376;50.932;4.442;2023-07-30T13:29:01;24.70;99.90
22418;DHT22;11376;50.932;4.442;2023-07-30T13:31:26;24.40;99.90
22418;DHT22;11376;50.932;4.442;2023-07-30T13:33:52;25.60;99.90
22418;DHT22;11376;50.932;4.442;2023-07-30T13:36:17;26.80;98.20
22418;DHT22;11376;50.932;4.442;2023-07-30T13:38:43;27.90;94.40
22418;DHT22;11376;50.932;4.442;2023-07-30T13:41:09;28.40;92.20
22418;DHT22;11376;50.932;4.442;2023-07-30T13:43:35;28.40;90.30
22418;DHT22;11376;50.932;4.442;2023-07-30T13:46:01;28.70;89.90
22418;DHT22;11376;50.932;4.442;2023-07-30T13:48:27;28.40;89.70
22418;DHT22;11376;50.932;4.442;2023-07-30T13:50:53;25.70;93.30
22418;DHT22;11376;50.932;4.442;2023-07-30T13:53:19;25.40;93.20
22418;DHT22;11376;50.932;4.442;2023-07-30T13:55:45;26.50;92.60
22418;DHT22;11376;50.932;4.442;2023-07-30T13:58:10;26.50;92.00
22418;DHT22;11376;50.932;4.442;2023-07-30T14:00:36;27.50;90.00
22418;DHT22;11376;50.932;4.442;2023-07-30T14:03:02;25.20;95.00
22418;DHT22;11376;50.932;4.442;2023-07-30T14:05:28;25.50;94.60
22418;DHT22;11376;50.932;4.442;2023-07-30T14:07:54;25.70;94.90
22418;DHT22;11376;50.932;4.442;2023-07-30T14:10:22;25.00;95.80
22418;DHT22;11376;50.932;4.442;2023-07-30T14:12:48;24.00;99.90
22418;DHT22;11376;50.932;4.442;2023-07-30T14:15:14;24.60;99.90
22418;DHT22;11376;50.932;4.442;2023-07-30T14:17:43;24.30;99.90
22418;DHT22;11376;50.932;4.442;2023-07-30T14:20:09;23.90;99.90
22418;DHT22;11376;50.932;4.442;2023-07-30T14:22:35;23.40;99.90
22418;DHT22;11376;50.932;4.442;2023-07-30T14:25:02;23.40;99.90
22418;DHT22;11376;50.932;4.442;2023-07-30T14:27:27;23.50;99.90
22418;DHT22;11376;50.932;4.442;2023-07-30T14:29:53;22.80;99.90
22418;DHT22;11376;50.932;4.442;2023-07-30T14:32:23;22.60;99.90
22418;DHT22;11376;50.932;4.442;2023-07-30T14:34:49;22.40;99.90
22418;DHT22;11376;50.932;4.442;2023-07-30T14:37:15;22.50;99.90
22418;DHT22;11376;50.932;4.442;2023-07-30T14:39:41;22.80;99.90
22418;DHT22;11376;50.932;4.442;2023-07-30T14:42:07;23.40;99.90
22418;DHT22;11376;50.932;4.442;2023-07-30T14:44:34;23.90;99.90
22418;DHT22;11376;50.932;4.442;2023-07-30T14:46:59;23.80;99.90
22418;DHT22;11376;50.932;4.442;2023-07-30T14:49:26;23.80;99.90
22418;DHT22;11376;50.932;4.442;2023-07-30T14:51:52;23.70;99.90
22418;DHT22;11376;50.932;4.442;2023-07-30T14:54:18;23.20;99.90
22418;DHT22;11376;50.932;4.442;2023-07-30T14:56:44;23.00;99.90
22418;DHT22;11376;50.932;4.442;2023-07-30T14:59:10;22.60;99.90
22418;DHT22;11376;50.932;4.442;2023-07-30T15:01:35;22.30;99.90
22418;DHT22;11376;50.932;4.442;2023-07-30T15:04:01;21.90;99.90
22418;DHT22;11376;50.932;4.442;2023-07-30T15:06:27;21.70;99.90
22418;DHT22;11376;50.932;4.442;2023-07-30T15:08:54;21.70;99.90
22418;DHT22;11376;50.932;4.442;2023-07-30T15:11:20;21.80;99.90
22418;DHT22;11376;50.932;4.442;2023-07-30T15:13:46;21.70;99.90
22418;DHT22;11376;50.932;4.442;2023-07-30T15:16:11;21.50;99.90
22418;DHT22;11376;50.932;4.442;2023-07-30T15:18:37;21.00;99.90
22418;DHT22;11376;50.932;4.442;2023-07-30T15:21:03;20.90;99.90
22418;DHT22;11376;50.932;4.442;2023-07-30T15:23:29;20.90;99.90
22418;DHT22;11376;50.932;4.442;2023-07-30T15:25:54;21.00;99.90
22418;DHT22;11376;50.932;4.442;2023-07-30T15:28:20;21.00;99.90
22418;DHT22;11376;50.932;4.442;2023-07-30T15:30:46;20.70;99.90
22418;DHT22;11376;50.932;4.442;2023-07-30T15:33:12;20.10;99.90
22418;DHT22;11376;50.932;4.442;2023-07-30T15:35:38;19.90;99.90
22418;DHT22;11376;50.932;4.442;2023-07-30T15:38:07;19.90;99.90